ADDS METAR Data INFO
IDs: Format: Raw Decoded Include TAF

Data at: 0736 UTC 21 Jul 2018

PASL 210702Z AUTO 00000KT 10SM CLR 20/14 A3026 RMK AO2 SLP241 T02000139
PASL 210302Z AUTO 18006KT 10SM BKN060 24/13 A3023 RMK AO2 SLP234 T02440128 58008
PASL 202202Z AUTO 18004KT 10SM CLR 22/11 A3027 RMK AO2 SLP246 T02170111
PASL 202102Z AUTO 13005KT 10SM CLR 21/12 A3027 RMK AO2 SLP247 T02060117 58004
PASL 201902Z AUTO 20004KT 10SM CLR 18/11 A3027 RMK AO2 SLP248 T01830111
PASL 201635Z AUTO 00000KT 10SM SCT002 11/11 A3028 RMK AO2
PASL 201612Z AUTO 00000KT 3/4SM BR OVC002 11/10 A3028 RMK AO2
PASL 201602Z AUTO 00000KT 1/2SM FG OVC002 10/09 A3028 RMK AO2
PASL 201532Z AUTO 00000KT 3/4SM BR OVC002 09/09 A3028 RMK AO2
PASL 201515Z AUTO 00000KT 3/4SM BR BKN002 08/08 A3028 RMK AO2
PASL 201502Z AUTO 00000KT 7SM FEW001 08/08 A3028 RMK AO2 SLP249 T00830083 51006
PASL 201318Z AUTO 00000KT 7SM SCT003 08/08 A3027 RMK AO2
PASL 201102Z AUTO 00000KT 8SM CLR 11/10 A3025 RMK AO2 SLP241 T01060100
PASL 200902Z AUTO 00000KT 10SM CLR 13/12 A3023 RMK AO2 SLP233 T01280122 401280128 53007
PASL 200802Z AUTO 00000KT 10SM CLR 14/14 A3022 RMK AO2 SLP228 T01440139
PASL 200602Z AUTO 00000KT 10SM CLR 19/13 A3020 RMK AO2 SLP222 T01940133 10239 20189 57003
PASL 200502Z AUTO 00000KT 10SM CLR 23/11 A3019 RMK AO2 SLP221 T02280111
PASL 200402Z AUTO VRB04KT 10SM CLR 24/11 A3020 RMK AO2 SLP222 T02390106
PASL 200302Z AUTO VRB05KT 10SM FEW060 23/11 A3020 RMK AO2 SLP224 T02330106 58010
PASL 200202Z AUTO 15006KT 10SM CLR 23/11 A3020 RMK AO2 SLP225 T02330111
PASL 200102Z AUTO VRB03KT 10SM CLR 23/11 A3021 RMK AO2 SLP229 T02280111
PASL 200002Z AUTO 00000KT 10SM BKN050 22/11 A3022 RMK AO2 SLP232 T02220111 10228 20172 58004
PASL 192302Z AUTO 00000KT 10SM OVC046 21/12 A3023 RMK AO2 SLP235 T02110122
PASL 192202Z AUTO 09004KT 6SM HZ FEW041 21/12 A3024 RMK AO2 SLP237 T02110122
PASL 192102Z AUTO VRB03KT 10SM FEW029 20/12 A3024 RMK AO2 SLP238 T02000117 55002
PASL 192002Z AUTO VRB04KT 10SM BKN031 19/13 A3024 RMK AO2